Agency Village, South Dakota
Current Conditions -  °F | °C
As of 6:36 PM on Saturday 25 Oct 2014 (Local Time) from KETH Reporting Station
Clear Clear  
Wind Chill: 52°   Ceiling: Unl
Heat Index: 52°   Visibility: 10mi
Dew Point: 27°   Wind: 0mph
Humidity: 38%   Direction: NA
Pressure: 30.09"   Gusts: NA
Location:  45.7041°N, 96.9842°W
Report Text: KETH 252336Z AUTO 00000KT 10SM CLR 11/M03 A3009 RMK AO2
Loading
Personal Weather Stations






























Interactive Weather Map New forecast layout! Learn more

10-Day Weather Forecast

Advertisements
Track Severe Weather on mobile